sensor_id;sensor_type;location;lat;lon;timestamp;pressure;altitude;pressure_sealevel;temperature;humidity
78509;BME280;67802;50.846;7.958;2023-03-01T04:22:15;98754.72;;;18.33;23.87
78509;BME280;67802;50.846;7.958;2023-03-01T04:24:43;98753.81;;;18.34;23.82
78509;BME280;67802;50.846;7.958;2023-03-01T04:27:09;98748.53;;;18.34;23.76
78509;BME280;67802;50.846;7.958;2023-03-01T04:29:34;98748.53;;;18.34;23.91
78509;BME280;67802;50.846;7.958;2023-03-01T04:32:00;98744.09;;;18.34;23.82
78509;BME280;67802;50.846;7.958;2023-03-01T04:34:25;98745.81;;;18.35;23.85
78509;BME280;67802;50.846;7.958;2023-03-01T04:36:52;98736.13;;;18.36;23.75
78509;BME280;67802;50.846;7.958;2023-03-01T04:39:17;98732.56;;;18.37;23.77
78509;BME280;67802;50.846;7.958;2023-03-01T04:41:43;98730.78;;;18.37;23.90
78509;BME280;67802;50.846;7.958;2023-03-01T04:44:08;98735.97;;;18.39;23.98
78509;BME280;67802;50.846;7.958;2023-03-01T04:46:34;98736.78;;;18.39;24.04
78509;BME280;67802;50.846;7.958;2023-03-01T04:49:00;98731.53;;;18.39;23.74
78509;BME280;67802;50.846;7.958;2023-03-01T04:51:25;98734.06;;;18.41;23.80
78509;BME280;67802;50.846;7.958;2023-03-01T04:53:50;98735.78;;;18.42;23.71
78509;BME280;67802;50.846;7.958;2023-03-01T04:56:16;98732.19;;;18.43;23.76
78509;BME280;67802;50.846;7.958;2023-03-01T04:58:44;98736.53;;;18.44;23.77
78509;BME280;67802;50.846;7.958;2023-03-01T05:01:17;98733.88;;;18.44;23.79
78509;BME280;67802;50.846;7.958;2023-03-01T05:03:46;98746.09;;;18.45;23.85
78509;BME280;67802;50.846;7.958;2023-03-01T05:06:11;98739.91;;;18.46;23.93
78509;BME280;67802;50.846;7.958;2023-03-01T05:08:38;98738.97;;;18.47;23.81
78509;BME280;67802;50.846;7.958;2023-03-01T05:11:04;98740.66;;;18.48;23.85
78509;BME280;67802;50.846;7.958;2023-03-01T05:13:30;98742.34;;;18.49;23.68
78509;BME280;67802;50.846;7.958;2023-03-01T05:15:58;98740.47;;;18.51;23.75
78509;BME280;67802;50.846;7.958;2023-03-01T05:18:24;98739.53;;;18.52;23.74
78509;BME280;67802;50.846;7.958;2023-03-01T05:20:53;98739.41;;;18.54;23.67
78509;BME280;67802;50.846;7.958;2023-03-01T05:23:21;98741.22;;;18.53;23.64
78509;BME280;67802;50.846;7.958;2023-03-01T05:25:47;98741.94;;;18.56;23.75
78509;BME280;67802;50.846;7.958;2023-03-01T05:28:12;98740.06;;;18.58;23.66
78509;BME280;67802;50.846;7.958;2023-03-01T05:30:38;98733.03;;;18.58;23.78
78509;BME280;67802;50.846;7.958;2023-03-01T05:33:07;98738.19;;;18.60;23.79
78509;BME280;67802;50.846;7.958;2023-03-01T05:35:42;98731.97;;;18.61;23.75
78509;BME280;67802;50.846;7.958;2023-03-01T05:38:08;98733.69;;;18.62;23.68
78509;BME280;67802;50.846;7.958;2023-03-01T05:40:34;98731.78;;;18.64;23.68
78509;BME280;67802;50.846;7.958;2023-03-01T05:42:59;98729.91;;;18.66;23.67
78509;BME280;67802;50.846;7.958;2023-03-01T05:45:26;98730.78;;;18.66;23.49
78509;BME280;67802;50.846;7.958;2023-03-01T05:47:52;98729.84;;;18.67;23.61
78509;BME280;67802;50.846;7.958;2023-03-01T05:50:20;98729.72;;;18.69;23.49
78509;BME280;67802;50.846;7.958;2023-03-01T05:52:47;98721.84;;;18.69;23.82
78509;BME280;67802;50.846;7.958;2023-03-01T05:55:15;98724.28;;;18.72;23.64
78509;BME280;67802;50.846;7.958;2023-03-01T05:57:41;98719.88;;;18.73;23.60
78509;BME280;67802;50.846;7.958;2023-03-01T06:00:07;98711.88;;;18.74;23.71
78509;BME280;67802;50.846;7.958;2023-03-01T06:02:32;98703.03;;;18.75;23.54
78509;BME280;67802;50.846;7.958;2023-03-01T06:04:58;98704.72;;;18.76;23.83
78509;BME280;67802;50.846;7.958;2023-03-01T06:07:23;98700.19;;;18.78;23.54
78509;BME280;67802;50.846;7.958;2023-03-01T06:09:48;98701.91;;;18.79;23.50
78509;BME280;67802;50.846;7.958;2023-03-01T06:12:14;98705.28;;;18.81;23.50
78509;BME280;67802;50.846;7.958;2023-03-01T06:14:39;98708.66;;;18.83;23.38
78509;BME280;67802;50.846;7.958;2023-03-01T06:17:04;98723.50;;;18.84;23.53
78509;BME280;67802;50.846;7.958;2023-03-01T06:19:30;98719.00;;;18.87;23.63
78509;BME280;67802;50.846;7.958;2023-03-01T06:21:55;98725.00;;;18.89;23.71
78509;BME280;67802;50.846;7.958;2023-03-01T06:24:20;98724.06;;;18.90;23.55
78509;BME280;67802;50.846;7.958;2023-03-01T06:26:45;98719.56;;;18.92;23.51
78509;BME280;67802;50.846;7.958;2023-03-01T06:29:11;98718.63;;;18.93;23.39
78509;BME280;67802;50.846;7.958;2023-03-01T06:31:36;98722.00;;;18.95;23.18
78509;BME280;67802;50.846;7.958;2023-03-01T06:34:02;98724.53;;;18.96;23.30
78509;BME280;67802;50.846;7.958;2023-03-01T06:36:27;98719.19;;;18.98;23.36
78509;BME280;67802;50.846;7.958;2023-03-01T06:38:53;98714.69;;;19.00;23.29
78509;BME280;67802;50.846;7.958;2023-03-01T06:41:18;98722.47;;;19.02;23.47
78509;BME280;67802;50.846;7.958;2023-03-01T06:43:43;98722.38;;;19.03;23.34
78509;BME280;67802;50.846;7.958;2023-03-01T06:46:09;98717.88;;;19.05;23.42
78509;BME280;67802;50.846;7.958;2023-03-01T06:48:34;98718.63;;;19.07;23.40
78509;BME280;67802;50.846;7.958;2023-03-01T06:51:00;98714.94;;;19.10;23.43
78509;BME280;67802;50.846;7.958;2023-03-01T06:53:29;98712.19;;;19.11;23.41
78509;BME280;67802;50.846;7.958;2023-03-01T06:55:57;98705.03;;;19.13;23.32
78509;BME280;67802;50.846;7.958;2023-03-01T06:58:25;98706.53;;;19.18;23.39
78509;BME280;67802;50.846;7.958;2023-03-01T07:00:50;98710.75;;;19.20;23.39
78509;BME280;67802;50.846;7.958;2023-03-01T07:03:15;98707.94;;;19.23;23.24
78509;BME280;67802;50.846;7.958;2023-03-01T07:05:40;98709.31;;;19.29;23.29
78509;BME280;67802;50.846;7.958;2023-03-01T07:08:06;98708.91;;;19.35;23.23
78509;BME280;67802;50.846;7.958;2023-03-01T07:10:31;98713.78;;;19.41;23.13
78509;BME280;67802;50.846;7.958;2023-03-01T07:12:57;98717.59;;;19.50;23.03
78509;BME280;67802;50.846;7.958;2023-03-01T07:15:24;98711.84;;;19.58;23.03
78509;BME280;67802;50.846;7.958;2023-03-01T07:17:49;98697.28;;;19.65;22.70
78509;BME280;67802;50.846;7.958;2023-03-01T07:20:16;98701.19;;;19.72;22.82
78509;BME280;67802;50.846;7.958;2023-03-01T07:22:41;98697.41;;;19.77;22.75
78509;BME280;67802;50.846;7.958;2023-03-01T07:25:08;98693.63;;;19.81;22.73
78509;BME280;67802;50.846;7.958;2023-03-01T07:27:33;98697.53;;;19.88;22.69
78509;BME280;67802;50.846;7.958;2023-03-01T07:29:58;98698.31;;;19.90;22.70
78509;BME280;67802;50.846;7.958;2023-03-01T07:32:24;98691.97;;;19.93;22.50
78509;BME280;67802;50.846;7.958;2023-03-01T07:34:50;98690.19;;;19.93;22.53
78509;BME280;67802;50.846;7.958;2023-03-01T07:37:16;98682.28;;;19.93;22.55
78509;BME280;67802;50.846;7.958;2023-03-01T07:39:41;98690.19;;;19.93;22.75
78509;BME280;67802;50.846;7.958;2023-03-01T07:42:07;98684.16;;;19.91;22.74
78509;BME280;67802;50.846;7.958;2023-03-01T07:44:33;98681.63;;;19.90;22.61
78509;BME280;67802;50.846;7.958;2023-03-01T07:47:00;98680.78;;;19.89;22.70
78509;BME280;67802;50.846;7.958;2023-03-01T07:49:25;98686.06;;;19.89;22.75
78509;BME280;67802;50.846;7.958;2023-03-01T07:51:51;98684.34;;;19.88;22.84
78509;BME280;67802;50.846;7.958;2023-03-01T07:54:17;98680.03;;;19.87;22.88
78509;BME280;67802;50.846;7.958;2023-03-01T07:56:43;98686.13;;;19.87;22.72
78509;BME280;67802;50.846;7.958;2023-03-01T07:59:09;98687.94;;;19.87;22.69
78509;BME280;67802;50.846;7.958;2023-03-01T08:01:34;98684.47;;;19.86;22.82
78509;BME280;67802;50.846;7.958;2023-03-01T08:04:00;98685.28;;;19.87;22.92
78509;BME280;67802;50.846;7.958;2023-03-01T08:06:25;98685.41;;;19.85;22.84
78509;BME280;67802;50.846;7.958;2023-03-01T08:08:50;98684.56;;;19.85;22.84
78509;BME280;67802;50.846;7.958;2023-03-01T08:11:16;98682.88;;;19.84;22.88
78509;BME280;67802;50.846;7.958;2023-03-01T08:13:42;98681.28;;;19.81;22.86
78509;BME280;67802;50.846;7.958;2023-03-01T08:16:12;98683.94;;;19.81;22.84
78509;BME280;67802;50.846;7.958;2023-03-01T08:18:38;98690.16;;;19.80;22.96
78509;BME280;67802;50.846;7.958;2023-03-01T08:21:09;98687.59;;;19.79;23.03
78509;BME280;67802;50.846;7.958;2023-03-01T08:23:35;98685.91;;;19.78;22.80
78509;BME280;67802;50.846;7.958;2023-03-01T08:26:18;98690.66;;;19.72;21.50
78509;BME280;67802;50.846;7.958;2023-03-01T08:28:45;98685.19;;;19.35;20.58
78509;BME280;67802;50.846;7.958;2023-03-01T08:31:26;98681.25;;;19.15;20.43
78509;BME280;67802;50.846;7.958;2023-03-01T08:33:54;98688.34;;;19.00;20.14
78509;BME280;67802;50.846;7.958;2023-03-01T08:36:24;98677.03;;;18.56;19.93
78509;BME280;67802;50.846;7.958;2023-03-01T08:38:50;98678.66;;;18.44;19.75
78509;BME280;67802;50.846;7.958;2023-03-01T08:41:15;98683.91;;;18.44;19.81
78509;BME280;67802;50.846;7.958;2023-03-01T08:43:41;98680.72;;;18.53;19.55
78509;BME280;67802;50.846;7.958;2023-03-01T08:46:06;98672.22;;;18.63;19.54
78509;BME280;67802;50.846;7.958;2023-03-01T08:48:32;98674.28;;;18.58;19.15
78509;BME280;67802;50.846;7.958;2023-03-01T08:51:07;98686.16;;;18.21;19.25
78509;BME280;67802;50.846;7.958;2023-03-01T08:53:32;98682.00;;;18.03;19.64
78509;BME280;67802;50.846;7.958;2023-03-01T08:56:00;98678.44;;;18.04;19.62
78509;BME280;67802;50.846;7.958;2023-03-01T08:58:26;98665.88;;;18.38;19.57
78509;BME280;67802;50.846;7.958;2023-03-01T09:00:51;98673.84;;;18.51;18.97
78509;BME280;67802;50.846;7.958;2023-03-01T09:03:16;98685.03;;;18.26;19.23
78509;BME280;67802;50.846;7.958;2023-03-01T09:05:41;98688.13;;;18.18;18.80
78509;BME280;67802;50.846;7.958;2023-03-01T09:08:07;98679.72;;;17.82;19.09
78509;BME280;67802;50.846;7.958;2023-03-01T09:10:37;98682.31;;;17.68;19.12
78509;BME280;67802;50.846;7.958;2023-03-01T09:13:02;98669.94;;;17.39;19.46
78509;BME280;67802;50.846;7.958;2023-03-01T09:15:28;98666.78;;;17.93;19.54
78509;BME280;67802;50.846;7.958;2023-03-01T09:17:53;98666.75;;;18.66;19.08
78509;BME280;67802;50.846;7.958;2023-03-01T09:20:18;98675.56;;;19.21;19.02
78509;BME280;67802;50.846;7.958;2023-03-01T09:22:43;98663.00;;;19.52;19.00
78509;BME280;67802;50.846;7.958;2023-03-01T09:25:09;98657.44;;;19.70;18.62
78509;BME280;67802;50.846;7.958;2023-03-01T09:27:34;98667.47;;;19.78;18.84
78509;BME280;67802;50.846;7.958;2023-03-01T09:30:00;98653.13;;;19.82;18.89
78509;BME280;67802;50.846;7.958;2023-03-01T09:32:25;98656.72;;;19.81;18.90
78509;BME280;67802;50.846;7.958;2023-03-01T09:34:50;98667.47;;;19.78;18.98
78509;BME280;67802;50.846;7.958;2023-03-01T09:37:33;98663.47;;;19.72;19.03
78509;BME280;67802;50.846;7.958;2023-03-01T09:39:58;98647.94;;;19.67;19.23
78509;BME280;67802;50.846;7.958;2023-03-01T09:42:24;98651.84;;;19.62;19.32
78509;BME280;67802;50.846;7.958;2023-03-01T09:44:53;98651.41;;;19.55;19.42
78509;BME280;67802;50.846;7.958;2023-03-01T09:47:23;98647.19;;;19.52;19.49
78509;BME280;67802;50.846;7.958;2023-03-01T09:50:35;98642.97;;;19.50;19.66
78509;BME280;67802;50.846;7.958;2023-03-01T09:53:12;98644.88;;;19.48;19.60
78509;BME280;67802;50.846;7.958;2023-03-01T09:55:39;98636.22;;;19.46;19.59
78509;BME280;67802;50.846;7.958;2023-03-01T10:00:51;98647.59;;;19.46;20.17
78509;BME280;67802;50.846;7.958;2023-03-01T10:03:39;98635.28;;;19.47;20.38
78509;BME280;67802;50.846;7.958;2023-03-01T10:06:21;98634.97;;;19.51;20.24
78509;BME280;67802;50.846;7.958;2023-03-01T10:09:02;98634.88;;;19.53;20.14
78509;BME280;67802;50.846;7.958;2023-03-01T10:11:33;98636.56;;;19.54;19.88
78509;BME280;67802;50.846;7.958;2023-03-01T10:14:05;98628.66;;;19.54;19.92
78509;BME280;67802;50.846;7.958;2023-03-01T10:16:54;98620.00;;;19.52;20.15
78509;BME280;67802;50.846;7.958;2023-03-01T10:19:29;98615.56;;;19.52;20.01
78509;BME280;67802;50.846;7.958;2023-03-01T10:21:59;98612.09;;;19.52;20.25
78509;BME280;67802;50.846;7.958;2023-03-01T10:24:27;98600.63;;;19.53;20.28
78509;BME280;67802;50.846;7.958;2023-03-01T10:26:58;98604.19;;;19.52;20.54
78509;BME280;67802;50.846;7.958;2023-03-01T10:29:56;98596.16;;;19.40;20.66
78509;BME280;67802;50.846;7.958;2023-03-01T10:32:24;98609.00;;;19.32;21.28
78509;BME280;67802;50.846;7.958;2023-03-01T10:34:49;98590.03;;;19.27;20.90
78509;BME280;67802;50.846;7.958;2023-03-01T10:37:20;98590.44;;;19.21;21.08
78509;BME280;67802;50.846;7.958;2023-03-01T10:40:08;98598.44;;;18.92;22.84
78509;BME280;67802;50.846;7.958;2023-03-01T10:42:38;98594.13;;;18.91;22.38
78509;BME280;67802;50.846;7.958;2023-03-01T10:50:43;98591.38;;;19.20;22.61
78509;BME280;67802;50.846;7.958;2023-03-01T10:53:28;98592.78;;;19.25;22.52
78509;BME280;67802;50.846;7.958;2023-03-01T10:56:04;98582.03;;;19.28;22.37
78509;BME280;67802;50.846;7.958;2023-03-01T10:58:31;98577.41;;;19.32;22.35
78509;BME280;67802;50.846;7.958;2023-03-01T11:01:26;98577.19;;;19.35;22.40
78509;BME280;67802;50.846;7.958;2023-03-01T11:06:40;98578.97;;;19.35;22.06
78509;BME280;67802;50.846;7.958;2023-03-01T11:09:20;98567.81;;;19.31;21.90
78509;BME280;67802;50.846;7.958;2023-03-01T11:11:51;98560.97;;;19.28;21.90
78509;BME280;67802;50.846;7.958;2023-03-01T11:14:27;98562.00;;;19.26;21.84
78509;BME280;67802;50.846;7.958;2023-03-01T11:17:27;98551.66;;;19.23;21.70
78509;BME280;67802;50.846;7.958;2023-03-01T11:23:21;98564.09;;;19.21;21.92
78509;BME280;67802;50.846;7.958;2023-03-01T11:25:32;98557.13;;;19.20;21.93
78509;BME280;67802;50.846;7.958;2023-03-01T11:28:03;98561.38;;;19.22;21.87
78509;BME280;67802;50.846;7.958;2023-03-01T11:30:32;98548.06;;;19.11;22.34
78509;BME280;67802;50.846;7.958;2023-03-01T11:35:35;98536.22;;;18.91;22.21
78509;BME280;67802;50.846;7.958;2023-03-01T11:38:25;98534.53;;;18.90;21.96
78509;BME280;67802;50.846;7.958;2023-03-01T11:41:10;98532.84;;;18.89;21.90
78509;BME280;67802;50.846;7.958;2023-03-01T11:43:54;98514.59;;;18.86;22.02
78509;BME280;67802;50.846;7.958;2023-03-01T12:01:23;98510.50;;;18.81;21.99
78509;BME280;67802;50.846;7.958;2023-03-01T12:06:52;98503.34;;;18.83;21.59
78509;BME280;67802;50.846;7.958;2023-03-01T12:09:47;98495.31;;;18.85;21.61
78509;BME280;67802;50.846;7.958;2023-03-01T12:12:26;98491.13;;;18.82;21.73
78509;BME280;67802;50.846;7.958;2023-03-01T12:14:58;98493.63;;;18.84;21.74
78509;BME280;67802;50.846;7.958;2023-03-01T12:25:27;98480.28;;;18.87;21.12
78509;BME280;67802;50.846;7.958;2023-03-01T12:30:46;98482.69;;;18.90;21.31
78509;BME280;67802;50.846;7.958;2023-03-01T12:33:49;98475.13;;;18.86;21.45
78509;BME280;67802;50.846;7.958;2023-03-01T12:36:31;98470.47;;;18.89;21.30
78509;BME280;67802;50.846;7.958;2023-03-01T12:42:02;98460.06;;;18.88;21.55
78509;BME280;67802;50.846;7.958;2023-03-01T12:44:53;98462.50;;;18.91;21.11
78509;BME280;67802;50.846;7.958;2023-03-01T12:50:27;98459.66;;;18.94;21.38
78509;BME280;67802;50.846;7.958;2023-03-01T12:52:57;98448.19;;;18.95;21.13
78509;BME280;67802;50.846;7.958;2023-03-01T12:55:40;98448.09;;;18.96;21.25
78509;BME280;67802;50.846;7.958;2023-03-01T13:07:30;98428.63;;;18.99;21.13
78509;BME280;67802;50.846;7.958;2023-03-01T13:17:56;98419.38;;;19.06;21.13
78509;BME280;67802;50.846;7.958;2023-03-01T13:20:32;98415.78;;;19.07;20.86
78509;BME280;67802;50.846;7.958;2023-03-01T13:23:07;98410.41;;;19.09;20.91
78509;BME280;67802;50.846;7.958;2023-03-01T13:31:09;98401.03;;;19.05;20.99
78509;BME280;67802;50.846;7.958;2023-03-01T13:33:46;98402.91;;;19.03;21.21
78509;BME280;67802;50.846;7.958;2023-03-01T13:39:20;98392.59;;;19.00;21.31
78509;BME280;67802;50.846;7.958;2023-03-01T13:41:53;98392.59;;;19.00;21.49
78509;BME280;67802;50.846;7.958;2023-03-01T13:44:32;98387.47;;;18.98;21.41
78509;BME280;67802;50.846;7.958;2023-03-01T13:47:03;98388.41;;;18.97;21.46
78509;BME280;67802;50.846;7.958;2023-03-01T13:49:43;98397.25;;;18.96;21.62
78509;BME280;67802;50.846;7.958;2023-03-01T13:54:56;98397.25;;;18.96;21.24
78509;BME280;67802;50.846;7.958;2023-03-01T13:57:26;98386.72;;;18.96;21.54
78509;BME280;67802;50.846;7.958;2023-03-01T13:59:53;98396.34;;;18.95;21.32
78509;BME280;67802;50.846;7.958;2023-03-01T14:02:19;98388.59;;;18.94;21.45
78509;BME280;67802;50.846;7.958;2023-03-01T14:04:56;98385.22;;;18.92;21.66
78509;BME280;67802;50.846;7.958;2023-03-01T14:07:23;98389.75;;;18.90;21.62
78509;BME280;67802;50.846;7.958;2023-03-01T14:09:56;98390.69;;;18.89;21.91
78509;BME280;67802;50.846;7.958;2023-03-01T14:15:15;98386.25;;;18.89;21.57
78509;BME280;67802;50.846;7.958;2023-03-01T14:18:04;98395.00;;;18.90;21.40
78509;BME280;67802;50.846;7.958;2023-03-01T14:20:39;98386.38;;;18.88;21.26
78509;BME280;67802;50.846;7.958;2023-03-01T14:23:12;98387.31;;;18.87;21.41
78509;BME280;67802;50.846;7.958;2023-03-01T14:25:47;98386.56;;;18.84;21.36
78509;BME280;67802;50.846;7.958;2023-03-01T14:28:19;98394.69;;;18.81;21.62
78509;BME280;67802;50.846;7.958;2023-03-01T14:30:47;98401.84;;;18.79;21.61
78509;BME280;67802;50.846;7.958;2023-03-01T14:33:34;98385.22;;;18.79;21.35
78509;BME280;67802;50.846;7.958;2023-03-01T14:38:35;98384.56;;;18.75;21.40
78509;BME280;67802;50.846;7.958;2023-03-01T14:41:05;98392.59;;;18.74;21.44
78509;BME280;67802;50.846;7.958;2023-03-01T14:43:31;98386.47;;;18.73;21.54
78509;BME280;67802;50.846;7.958;2023-03-01T14:45:57;98388.13;;;18.74;21.34
78509;BME280;67802;50.846;7.958;2023-03-01T14:48:22;98383.81;;;18.73;21.42
78509;BME280;67802;50.846;7.958;2023-03-01T14:50:49;98382.88;;;18.74;21.25
78509;BME280;67802;50.846;7.958;2023-03-01T14:53:27;98390.03;;;18.72;21.18
78509;BME280;67802;50.846;7.958;2023-03-01T14:56:00;98382.13;;;18.72;21.22
78509;BME280;67802;50.846;7.958;2023-03-01T14:58:31;98384.78;;;18.72;21.30
78509;BME280;67802;50.846;7.958;2023-03-01T15:01:00;98377.81;;;18.71;21.48
78509;BME280;67802;50.846;7.958;2023-03-01T15:03:38;98375.09;;;18.73;21.21
78509;BME280;67802;50.846;7.958;2023-03-01T15:06:06;98368.78;;;18.75;21.07
78509;BME280;67802;50.846;7.958;2023-03-01T15:08:33;98370.66;;;18.73;21.02
78509;BME280;67802;50.846;7.958;2023-03-01T15:11:22;98359.41;;;18.71;20.94
78509;BME280;67802;50.846;7.958;2023-03-01T15:13:50;98362.03;;;18.71;20.89
78509;BME280;67802;50.846;7.958;2023-03-01T15:16:21;98360.34;;;18.70;20.96
78509;BME280;67802;50.846;7.958;2023-03-01T15:19:05;98354.13;;;18.71;20.87
78509;BME280;67802;50.846;7.958;2023-03-01T15:24:16;98356.78;;;18.71;20.80
78509;BME280;67802;50.846;7.958;2023-03-01T15:26:52;98355.81;;;18.72;20.49
78509;BME280;67802;50.846;7.958;2023-03-01T15:29:24;98355.00;;;18.72;20.54
78509;BME280;67802;50.846;7.958;2023-03-01T15:32:59;98352.44;;;18.70;20.57
78509;BME280;67802;50.846;7.958;2023-03-01T15:34:51;98356.78;;;18.71;20.27
78509;BME280;67802;50.846;7.958;2023-03-01T15:37:45;98355.09;;;18.70;20.00
78509;BME280;67802;50.846;7.958;2023-03-01T15:40:25;98356.97;;;18.68;20.37
78509;BME280;67802;50.846;7.958;2023-03-01T15:42:59;98355.28;;;18.67;20.30
78509;BME280;67802;50.846;7.958;2023-03-01T15:45:27;98355.28;;;18.67;20.11
78509;BME280;67802;50.846;7.958;2023-03-01T15:47:57;98351.72;;;18.68;20.20
78509;BME280;67802;50.846;7.958;2023-03-01T15:50:26;98338.56;;;18.68;20.43
78509;BME280;67802;50.846;7.958;2023-03-01T15:52:53;98350.88;;;18.67;20.46
78509;BME280;67802;50.846;7.958;2023-03-01T15:55:21;98342.88;;;18.69;20.73
78509;BME280;67802;50.846;7.958;2023-03-01T15:57:49;98338.56;;;18.68;20.62
78509;BME280;67802;50.846;7.958;2023-03-01T16:00:16;98327.94;;;18.69;20.55
78509;BME280;67802;50.846;7.958;2023-03-01T16:02:43;98327.94;;;18.69;20.58
78509;BME280;67802;50.846;7.958;2023-03-01T16:07:51;98323.50;;;18.70;20.47
78509;BME280;67802;50.846;7.958;2023-03-01T16:10:17;98321.81;;;18.69;20.42
78509;BME280;67802;50.846;7.958;2023-03-01T16:12:43;98315.09;;;18.65;19.97
78509;BME280;67802;50.846;7.958;2023-03-01T16:15:15;98319.72;;;18.61;20.20
78509;BME280;67802;50.846;7.958;2023-03-01T16:17:41;98317.19;;;18.60;20.23
78509;BME280;67802;50.846;7.958;2023-03-01T16:20:07;98316.44;;;18.58;20.33
78509;BME280;67802;50.846;7.958;2023-03-01T16:22:33;98320.97;;;18.56;20.37
78509;BME280;67802;50.846;7.958;2023-03-01T16:24:58;98315.00;;;18.53;20.45
78509;BME280;67802;50.846;7.958;2023-03-01T16:27:23;98322.91;;;18.53;20.61
78509;BME280;67802;50.846;7.958;2023-03-01T16:29:49;98322.25;;;18.50;20.81
78509;BME280;67802;50.846;7.958;2023-03-01T16:32:14;98325.81;;;18.49;20.73
78509;BME280;67802;50.846;7.958;2023-03-01T16:34:40;98326.75;;;18.48;20.57
78509;BME280;67802;50.846;7.958;2023-03-01T16:37:05;98337.41;;;18.46;20.64
78509;BME280;67802;50.846;7.958;2023-03-01T16:39:30;98334.25;;;18.41;20.21
78509;BME280;67802;50.846;7.958;2023-03-01T16:41:56;98336.34;;;18.36;20.31
78509;BME280;67802;50.846;7.958;2023-03-01T16:44:21;98337.69;;;18.29;20.20
78509;BME280;67802;50.846;7.958;2023-03-01T16:46:46;98340.72;;;18.22;20.11
78509;BME280;67802;50.846;7.958;2023-03-01T16:49:11;98336.59;;;18.18;20.11
78509;BME280;67802;50.846;7.958;2023-03-01T16:51:37;98346.59;;;18.13;20.21
78509;BME280;67802;50.846;7.958;2023-03-01T16:54:02;98344.28;;;18.08;20.03
78509;BME280;67802;50.846;7.958;2023-03-01T16:56:29;98343.81;;;18.02;20.10
78509;BME280;67802;50.846;7.958;2023-03-01T16:58:56;98338.84;;;17.97;20.09
78509;BME280;67802;50.846;7.958;2023-03-01T17:01:21;98348.53;;;17.97;20.20
78509;BME280;67802;50.846;7.958;2023-03-01T17:03:49;98348.63;;;17.95;20.18
78509;BME280;67802;50.846;7.958;2023-03-01T17:06:18;98340.84;;;17.93;20.41
78509;BME280;67802;50.846;7.958;2023-03-01T17:08:45;98346.94;;;17.94;20.51
78509;BME280;67802;50.846;7.958;2023-03-01T17:11:16;98347.03;;;17.92;20.44
78509;BME280;67802;50.846;7.958;2023-03-01T17:13:43;98356.69;;;17.92;20.59
78509;BME280;67802;50.846;7.958;2023-03-01T17:16:11;98356.81;;;17.90;21.03
78509;BME280;67802;50.846;7.958;2023-03-01T17:18:37;98361.13;;;17.91;20.66
78509;BME280;67802;50.846;7.958;2023-03-01T17:21:03;98356.69;;;17.92;20.74
78509;BME280;67802;50.846;7.958;2023-03-01T17:23:30;98357.63;;;17.91;20.67
78509;BME280;67802;50.846;7.958;2023-03-01T17:25:56;98355.94;;;17.90;20.49
78509;BME280;67802;50.846;7.958;2023-03-01T17:28:23;98358.56;;;17.90;20.76
78509;BME280;67802;50.846;7.958;2023-03-01T17:30:49;98359.53;;;17.89;20.84
78509;BME280;67802;50.846;7.958;2023-03-01T17:33:15;98362.16;;;17.89;20.91
78509;BME280;67802;50.846;7.958;2023-03-01T17:35:41;98362.06;;;17.90;20.95
78509;BME280;67802;50.846;7.958;2023-03-01T17:38:06;98359.44;;;17.90;20.94
78509;BME280;67802;50.846;7.958;2023-03-01T17:40:32;98363.94;;;17.88;21.10
78509;BME280;67802;50.846;7.958;2023-03-01T17:43:00;98374.47;;;17.88;21.16
78509;BME280;67802;50.846;7.958;2023-03-01T17:45:25;98375.41;;;17.87;21.30
78509;BME280;67802;50.846;7.958;2023-03-01T17:47:50;98375.50;;;17.86;21.44
78509;BME280;67802;50.846;7.958;2023-03-01T17:50:16;98381.50;;;17.88;21.49
78509;BME280;67802;50.846;7.958;2023-03-01T17:52:41;98374.47;;;17.88;21.50
78509;BME280;67802;50.846;7.958;2023-03-01T17:55:07;98377.91;;;17.89;21.68
78509;BME280;67802;50.846;7.958;2023-03-01T17:57:33;98374.25;;;17.91;21.46
78509;BME280;67802;50.846;7.958;2023-03-01T17:59:58;98374.06;;;17.94;21.54
78509;BME280;67802;50.846;7.958;2023-03-01T18:02:24;98368.81;;;17.94;21.74
78509;BME280;67802;50.846;7.958;2023-03-01T18:04:51;98369.63;;;17.95;21.72
78509;BME280;67802;50.846;7.958;2023-03-01T18:07:16;98373.13;;;17.95;21.72
78509;BME280;67802;50.846;7.958;2023-03-01T18:09:41;98378.28;;;17.97;21.79
78509;BME280;67802;50.846;7.958;2023-03-01T18:12:07;98378.19;;;17.99;21.75
78509;BME280;67802;50.846;7.958;2023-03-01T18:14:32;98378.97;;;18.01;21.85
78509;BME280;67802;50.846;7.958;2023-03-01T18:16:59;98371.78;;;18.03;21.77
78509;BME280;67802;50.846;7.958;2023-03-01T18:19:27;98370.84;;;18.04;21.79
78509;BME280;67802;50.846;7.958;2023-03-01T18:21:52;98374.22;;;18.06;21.92
78509;BME280;67802;50.846;7.958;2023-03-01T18:24:18;98372.13;;;18.11;21.94
78509;BME280;67802;50.846;7.958;2023-03-01T18:26:43;98365.84;;;18.14;21.71
78509;BME280;67802;50.846;7.958;2023-03-01T18:29:09;98364.06;;;18.14;21.68
78509;BME280;67802;50.846;7.958;2023-03-01T18:31:34;98373.41;;;18.18;21.74
78509;BME280;67802;50.846;7.958;2023-03-01T18:34:00;98361.97;;;18.19;21.71
78509;BME280;67802;50.846;7.958;2023-03-01T18:36:28;98368.09;;;18.20;21.85
78509;BME280;67802;50.846;7.958;2023-03-01T18:38:54;98366.28;;;18.20;21.95
78509;BME280;67802;50.846;7.958;2023-03-01T18:41:20;98361.75;;;18.22;21.74
78509;BME280;67802;50.846;7.958;2023-03-01T18:43:45;98373.13;;;18.23;21.87
78509;BME280;67802;50.846;7.958;2023-03-01T18:46:10;98373.97;;;18.23;22.00
78509;BME280;67802;50.846;7.958;2023-03-01T18:48:36;98370.38;;;18.24;21.96
78509;BME280;67802;50.846;7.958;2023-03-01T18:51:10;98364.00;;;18.29;22.07
78509;BME280;67802;50.846;7.958;2023-03-01T18:53:36;98360.28;;;18.31;21.99
78509;BME280;67802;50.846;7.958;2023-03-01T18:56:01;98356.53;;;18.35;21.92
78509;BME280;67802;50.846;7.958;2023-03-01T18:58:27;98356.31;;;18.38;22.14
78509;BME280;67802;50.846;7.958;2023-03-01T19:00:52;98360.44;;;18.43;21.95
78509;BME280;67802;50.846;7.958;2023-03-01T19:03:18;98356.56;;;18.48;21.76